Time;durP1;ratioP1;P1;durP2;ratioP2;P2;SDS_P1;SDS_P2;PMS_P1;PMS_P2;Temp;Humidity;BMP_temperature;BMP_pressure;BME280_temperature;BME280_humidity;BME280_pressure;Samples;Min_cycle;Max_cycle;Signal;HPM_P1;HPM_P2
2022/03/08 00:00:21;;;;;;;8.37;7.47;;;;;;;;;;4989341;28;20198;-54
2022/03/08 00:02:47;;;;;;;9.13;7.57;;;;;;;;;;4990747;28;20193;-55
2022/03/08 00:05:13;;;;;;;7.93;7.13;;;;;;;;;;4984760;28;20221;-54
2022/03/08 00:07:39;;;;;;;7.80;7.00;;;;;;;;;;4994287;28;20267;-54
2022/03/08 00:10:06;;;;;;;9.67;8.07;;;;;;;;;;4991530;28;20248;-55
2022/03/08 00:12:32;;;;;;;9.43;6.93;;;;;;;;;;4987635;28;21939;-54
2022/03/08 00:14:58;;;;;;;8.40;7.00;;;;;;;;;;4985488;28;20197;-55
2022/03/08 00:17:24;;;;;;;7.23;6.53;;;;;;;;;;4991203;28;20220;-55
2022/03/08 00:19:50;;;;;;;8.80;6.97;;;;;;;;;;4989193;28;20300;-55
2022/03/08 00:22:16;;;;;;;8.77;7.80;;;;;;;;;;4998109;28;20201;-55
2022/03/08 00:24:43;;;;;;;7.67;6.87;;;;;;;;;;4990505;28;20233;-55
2022/03/08 00:27:09;;;;;;;8.00;6.83;;;;;;;;;;4986812;28;20197;-55
2022/03/08 00:29:35;;;;;;;7.67;6.80;;;;;;;;;;4999328;28;20228;-54
2022/03/08 00:32:01;;;;;;;7.87;6.93;;;;;;;;;;5003572;28;20201;-61
2022/03/08 00:34:27;;;;;;;8.67;7.20;;;;;;;;;;5001329;28;20196;-54
2022/03/08 00:36:53;;;;;;;8.30;6.93;;;;;;;;;;5003583;28;20800;-54
2022/03/08 00:39:19;;;;;;;8.57;7.40;;;;;;;;;;4999547;28;20201;-54
2022/03/08 00:41:45;;;;;;;9.03;7.23;;;;;;;;;;4998512;28;20196;-55
2022/03/08 00:44:11;;;;;;;8.33;7.07;;;;;;;;;;5003011;28;20229;-55
2022/03/08 00:46:37;;;;;;;8.07;7.20;;;;;;;;;;4991036;28;20680;-55
2022/03/08 00:49:03;;;;;;;7.60;6.80;;;;;;;;;;4995049;28;20239;-55
2022/03/08 00:51:29;;;;;;;8.00;6.10;;;;;;;;;;4994062;28;20709;-55
2022/03/08 00:53:55;;;;;;;8.73;7.00;;;;;;;;;;4993281;28;20290;-53
2022/03/08 00:56:21;;;;;;;7.93;6.90;;;;;;;;;;4990544;28;20220;-54
2022/03/08 00:58:47;;;;;;;7.13;6.33;;;;;;;;;;4990849;28;20202;-55
2022/03/08 01:01:13;;;;;;;7.57;6.60;;;;;;;;;;4984341;28;20205;-54
2022/03/08 01:03:39;;;;;;;8.27;7.07;;;;;;;;;;4985919;28;20686;-55
2022/03/08 01:06:05;;;;;;;8.03;7.23;;;;;;;;;;4983493;28;22473;-54
2022/03/08 01:08:31;;;;;;;7.23;6.10;;;;;;;;;;4987367;28;20219;-54
2022/03/08 01:10:57;;;;;;;6.90;6.20;;;;;;;;;;4995718;28;20195;-54
2022/03/08 01:13:23;;;;;;;7.67;6.57;;;;;;;;;;4988940;28;20208;-54
2022/03/08 01:15:49;;;;;;;7.20;6.47;;;;;;;;;;4983310;28;20197;-53
2022/03/08 01:18:15;;;;;;;8.10;6.47;;;;;;;;;;4983598;28;20200;-53
2022/03/08 01:20:41;;;;;;;7.27;6.57;;;;;;;;;;4990778;28;20663;-54
2022/03/08 01:23:07;;;;;;;8.87;6.50;;;;;;;;;;4982950;28;20260;-54
2022/03/08 01:25:34;;;;;;;7.87;6.47;;;;;;;;;;4987751;28;20240;-54
2022/03/08 01:28:00;;;;;;;8.87;6.70;;;;;;;;;;4983946;28;20227;-54
2022/03/08 01:30:26;;;;;;;7.53;6.83;;;;;;;;;;4992663;28;20193;-54
2022/03/08 01:32:53;;;;;;;7.27;6.33;;;;;;;;;;5001926;28;20681;-54
2022/03/08 01:35:19;;;;;;;7.40;6.63;;;;;;;;;;5003104;28;20196;-54
2022/03/08 01:37:45;;;;;;;6.93;6.23;;;;;;;;;;5000586;28;20190;-54
2022/03/08 01:40:14;;;;;;;8.00;6.13;;;;;;;;;;5001580;28;20204;-54
2022/03/08 01:42:41;;;;;;;8.00;6.60;;;;;;;;;;4986197;28;20193;-54
2022/03/08 01:45:07;;;;;;;7.07;6.27;;;;;;;;;;4994553;28;20229;-54
2022/03/08 01:47:33;;;;;;;7.00;6.30;;;;;;;;;;4989143;28;20279;-54
2022/03/08 01:49:59;;;;;;;6.80;6.20;;;;;;;;;;4983599;28;20789;-54
2022/03/08 01:52:25;;;;;;;7.57;6.30;;;;;;;;;;4981818;28;20782;-54
2022/03/08 01:54:51;;;;;;;7.50;6.47;;;;;;;;;;4987146;28;20213;-53
2022/03/08 01:57:19;;;;;;;9.07;6.40;;;;;;;;;;4984725;28;20746;-53
2022/03/08 01:59:45;;;;;;;6.80;6.10;;;;;;;;;;4991072;28;20193;-54
2022/03/08 02:02:11;;;;;;;6.47;5.87;;;;;;;;;;4983156;28;20197;-55
2022/03/08 02:04:38;;;;;;;7.73;6.43;;;;;;;;;;4976281;28;20267;-54
2022/03/08 02:07:04;;;;;;;7.83;6.30;;;;;;;;;;4980837;28;21019;-53
2022/03/08 02:09:30;;;;;;;7.00;6.30;;;;;;;;;;4988437;28;20255;-54
2022/03/08 02:11:56;;;;;;;7.83;6.77;;;;;;;;;;4992948;28;20188;-53
2022/03/08 02:14:22;;;;;;;7.40;6.17;;;;;;;;;;4995885;28;20204;-55
2022/03/08 02:16:48;;;;;;;7.30;6.60;;;;;;;;;;4987791;28;20197;-53
2022/03/08 02:19:14;;;;;;;7.83;6.33;;;;;;;;;;4992731;28;20186;-54
2022/03/08 02:21:40;;;;;;;7.10;6.27;;;;;;;;;;4990958;28;20198;-54
2022/03/08 02:24:06;;;;;;;6.83;5.87;;;;;;;;;;4989464;28;20322;-54
2022/03/08 02:26:32;;;;;;;8.40;6.30;;;;;;;;;;4986298;28;20618;-54
2022/03/08 02:29:03;;;;;;;8.63;6.57;;;;;;;;;;4993369;28;20302;-54
2022/03/08 02:31:29;;;;;;;6.93;6.23;;;;;;;;;;4990073;28;20208;-53
2022/03/08 02:33:55;;;;;;;9.27;6.67;;;;;;;;;;4988051;28;22674;-54
2022/03/08 02:36:21;;;;;;;7.07;6.37;;;;;;;;;;4989521;28;20668;-54
2022/03/08 02:38:47;;;;;;;7.07;6.23;;;;;;;;;;4994322;28;20247;-55
2022/03/08 02:41:12;;;;;;;6.87;5.87;;;;;;;;;;4988555;28;20204;-55
2022/03/08 02:43:38;;;;;;;6.80;6.07;;;;;;;;;;4995900;28;20268;-54
2022/03/08 02:46:04;;;;;;;6.80;6.10;;;;;;;;;;4996899;28;20383;-53
2022/03/08 02:48:30;;;;;;;9.53;6.47;;;;;;;;;;4996991;28;20304;-54
2022/03/08 02:50:56;;;;;;;9.97;5.77;;;;;;;;;;4999788;28;20654;-54
2022/03/08 02:53:22;;;;;;;7.27;5.93;;;;;;;;;;4996761;28;20758;-54
2022/03/08 02:55:48;;;;;;;6.63;6.03;;;;;;;;;;4992960;28;20201;-54
2022/03/08 02:58:14;;;;;;;7.37;6.10;;;;;;;;;;4989178;28;20202;-53
2022/03/08 03:00:40;;;;;;;6.60;6.00;;;;;;;;;;4995623;28;20229;-55
2022/03/08 03:03:07;;;;;;;6.93;5.70;;;;;;;;;;4990097;28;20194;-54
2022/03/08 03:05:33;;;;;;;6.20;5.60;;;;;;;;;;4992215;28;20565;-54
2022/03/08 03:07:59;;;;;;;7.70;6.23;;;;;;;;;;4995339;28;20682;-54
2022/03/08 03:10:25;;;;;;;9.27;6.40;;;;;;;;;;4989837;28;20193;-53
2022/03/08 03:12:51;;;;;;;6.90;6.03;;;;;;;;;;4993418;28;20196;-54
2022/03/08 03:15:18;;;;;;;6.97;5.90;;;;;;;;;;4989553;28;20203;-54
2022/03/08 03:17:44;;;;;;;9.27;6.27;;;;;;;;;;4995854;28;21000;-54
2022/03/08 03:20:11;;;;;;;6.43;5.73;;;;;;;;;;4994369;28;20197;-54
2022/03/08 03:22:37;;;;;;;6.73;6.00;;;;;;;;;;4993088;28;20880;-54
2022/03/08 03:25:03;;;;;;;8.10;5.90;;;;;;;;;;4989131;28;22412;-55
2022/03/08 03:27:29;;;;;;;7.77;6.07;;;;;;;;;;4993303;28;20206;-54
2022/03/08 03:29:55;;;;;;;6.00;5.40;;;;;;;;;;4987021;28;20200;-55
2022/03/08 03:32:23;;;;;;;7.13;5.97;;;;;;;;;;4992883;28;20324;-54
2022/03/08 03:34:49;;;;;;;5.57;5.07;;;;;;;;;;4985210;28;20201;-54
2022/03/08 03:37:15;;;;;;;6.87;6.20;;;;;;;;;;4993463;28;20339;-54
2022/03/08 03:39:40;;;;;;;7.00;6.03;;;;;;;;;;4983592;28;20207;-54
2022/03/08 03:42:07;;;;;;;6.97;6.03;;;;;;;;;;4986799;28;20208;-55
2022/03/08 03:44:33;;;;;;;7.93;5.77;;;;;;;;;;4991815;28;20587;-54
2022/03/08 03:46:59;;;;;;;6.70;5.43;;;;;;;;;;4982066;28;20200;-54
2022/03/08 03:49:25;;;;;;;7.10;5.40;;;;;;;;;;4985711;28;20224;-54
2022/03/08 03:51:51;;;;;;;6.17;5.47;;;;;;;;;;4991469;28;20204;-56
2022/03/08 03:54:18;;;;;;;6.50;5.90;;;;;;;;;;4990731;28;20189;-55
2022/03/08 03:56:44;;;;;;;6.50;5.87;;;;;;;;;;4996679;28;20328;-53
2022/03/08 03:59:10;;;;;;;6.77;5.70;;;;;;;;;;4990442;28;20217;-54
2022/03/08 04:01:36;;;;;;;6.37;5.77;;;;;;;;;;4991664;28;21376;-54
2022/03/08 04:04:02;;;;;;;6.40;5.13;;;;;;;;;;4988105;28;20204;-55
2022/03/08 04:06:28;;;;;;;6.83;5.87;;;;;;;;;;4995945;28;20192;-54
2022/03/08 04:08:53;;;;;;;8.03;5.90;;;;;;;;;;4990083;28;20307;-54
2022/03/08 04:11:19;;;;;;;6.67;5.57;;;;;;;;;;4987139;28;20189;-56
2022/03/08 04:13:45;;;;;;;7.03;6.03;;;;;;;;;;4992548;28;20197;-54
2022/03/08 04:16:11;;;;;;;6.97;5.50;;;;;;;;;;4993823;28;20565;-54
2022/03/08 04:18:37;;;;;;;6.93;5.43;;;;;;;;;;4995123;28;20212;-53
2022/03/08 04:21:03;;;;;;;7.50;5.83;;;;;;;;;;4988498;28;20200;-54
2022/03/08 04:23:29;;;;;;;7.30;5.93;;;;;;;;;;4991596;28;20201;-54
2022/03/08 04:25:55;;;;;;;7.17;6.47;;;;;;;;;;4979646;28;20251;-54
2022/03/08 04:28:21;;;;;;;6.40;5.80;;;;;;;;;;4992767;28;20236;-53
2022/03/08 04:30:47;;;;;;;6.17;5.57;;;;;;;;;;4987801;28;23724;-54
2022/03/08 04:33:13;;;;;;;7.33;6.30;;;;;;;;;;4987908;28;20224;-54
2022/03/08 04:35:39;;;;;;;8.40;6.13;;;;;;;;;;4984428;28;20208;-53
2022/03/08 04:38:05;;;;;;;7.60;6.00;;;;;;;;;;4992415;28;20196;-54
2022/03/08 04:40:31;;;;;;;6.53;5.93;;;;;;;;;;4986095;28;20210;-53
2022/03/08 04:42:57;;;;;;;6.33;5.50;;;;;;;;;;4994206;28;20212;-54
2022/03/08 04:45:23;;;;;;;6.30;5.70;;;;;;;;;;4996267;28;20206;-54
2022/03/08 04:47:49;;;;;;;7.00;6.23;;;;;;;;;;4995709;28;20592;-54
2022/03/08 04:50:16;;;;;;;6.53;5.80;;;;;;;;;;4993048;28;20203;-53
2022/03/08 04:52:42;;;;;;;6.83;5.97;;;;;;;;;;4990415;28;20195;-53
2022/03/08 04:55:08;;;;;;;7.60;6.17;;;;;;;;;;4986616;28;20743;-53
2022/03/08 04:57:34;;;;;;;8.00;6.10;;;;;;;;;;4990870;28;20274;-54
2022/03/08 05:00:00;;;;;;;7.13;5.83;;;;;;;;;;4995898;28;20225;-55
2022/03/08 05:02:26;;;;;;;6.90;6.13;;;;;;;;;;5002895;28;20228;-53
2022/03/08 05:04:52;;;;;;;9.60;6.23;;;;;;;;;;4998685;28;20218;-54
2022/03/08 05:07:18;;;;;;;7.70;5.83;;;;;;;;;;4994818;28;20275;-55
2022/03/08 05:09:44;;;;;;;7.97;5.70;;;;;;;;;;4998843;28;20302;-54
2022/03/08 05:12:10;;;;;;;7.00;5.90;;;;;;;;;;4994723;28;20211;-54
2022/03/08 05:14:36;;;;;;;7.17;5.87;;;;;;;;;;4995170;28;20485;-54
2022/03/08 05:17:02;;;;;;;7.10;5.90;;;;;;;;;;5001493;28;20247;-54
2022/03/08 05:19:28;;;;;;;7.27;6.07;;;;;;;;;;4998423;28;20205;-54
2022/03/08 05:21:54;;;;;;;8.40;6.53;;;;;;;;;;4993197;28;20316;-53
2022/03/08 05:24:20;;;;;;;8.27;6.47;;;;;;;;;;4991399;28;20922;-53
2022/03/08 05:26:46;;;;;;;6.83;5.77;;;;;;;;;;4983398;28;20680;-54
2022/03/08 05:29:12;;;;;;;8.70;6.30;;;;;;;;;;4986257;28;20688;-54
2022/03/08 05:31:38;;;;;;;7.57;6.43;;;;;;;;;;4983958;28;20254;-53
2022/03/08 05:34:04;;;;;;;8.57;6.30;;;;;;;;;;4988311;28;20203;-56
2022/03/08 05:36:30;;;;;;;6.93;6.23;;;;;;;;;;4981041;28;20208;-54
2022/03/08 05:38:56;;;;;;;7.03;6.30;;;;;;;;;;4990252;28;20208;-54
2022/03/08 05:41:22;;;;;;;7.13;6.33;;;;;;;;;;4993666;28;20200;-53
2022/03/08 05:43:47;;;;;;;6.90;6.20;;;;;;;;;;4998123;28;20232;-52
2022/03/08 05:46:13;;;;;;;7.17;6.07;;;;;;;;;;5003216;28;20204;-54
2022/03/08 05:48:39;;;;;;;7.67;6.47;;;;;;;;;;5007544;28;20255;-54
2022/03/08 05:51:06;;;;;;;9.27;6.03;;;;;;;;;;4987910;28;20481;-55
2022/03/08 05:53:32;;;;;;;6.50;5.80;;;;;;;;;;4989182;28;20193;-54
2022/03/08 05:55:58;;;;;;;8.80;6.57;;;;;;;;;;4991969;28;20451;-56
2022/03/08 05:58:23;;;;;;;7.10;6.40;;;;;;;;;;4991305;28;20322;-54
2022/03/08 06:00:49;;;;;;;7.13;6.00;;;;;;;;;;4989148;28;20191;-54
2022/03/08 06:03:15;;;;;;;9.23;6.27;;;;;;;;;;4993507;28;20197;-54
2022/03/08 06:05:41;;;;;;;7.03;6.13;;;;;;;;;;4995004;28;20292;-54
2022/03/08 06:08:07;;;;;;;7.53;6.63;;;;;;;;;;4990552;28;20220;-54
2022/03/08 06:10:33;;;;;;;6.90;6.13;;;;;;;;;;4991277;28;20196;-54
2022/03/08 06:12:59;;;;;;;6.40;5.80;;;;;;;;;;4992305;28;20205;-53
2022/03/08 06:15:25;;;;;;;7.27;6.40;;;;;;;;;;4989454;28;20208;-53
2022/03/08 06:17:51;;;;;;;7.53;6.77;;;;;;;;;;4985034;28;20207;-53
2022/03/08 06:20:17;;;;;;;7.23;6.47;;;;;;;;;;4999865;28;20205;-52
2022/03/08 06:22:43;;;;;;;7.87;6.17;;;;;;;;;;4997707;28;20200;-53
2022/03/08 06:25:09;;;;;;;9.40;6.77;;;;;;;;;;5001693;28;20301;-52
2022/03/08 06:27:35;;;;;;;7.00;6.30;;;;;;;;;;4996509;28;20207;-53
2022/03/08 06:30:02;;;;;;;9.47;6.60;;;;;;;;;;4993877;28;20205;-53
2022/03/08 06:32:27;;;;;;;10.80;6.23;;;;;;;;;;4999546;28;20616;-53
2022/03/08 06:34:53;;;;;;;7.53;6.70;;;;;;;;;;5001674;28;20189;-53
2022/03/08 06:37:19;;;;;;;9.63;7.10;;;;;;;;;;4996012;28;20245;-53
2022/03/08 06:39:48;;;;;;;8.50;7.03;;;;;;;;;;5000038;28;20670;-53
2022/03/08 06:42:14;;;;;;;7.57;6.47;;;;;;;;;;4995761;28;20541;-52
2022/03/08 06:44:40;;;;;;;7.17;6.17;;;;;;;;;;5003668;28;20196;-53
2022/03/08 06:47:07;;;;;;;9.10;7.07;;;;;;;;;;5002671;28;20207;-53
2022/03/08 06:49:33;;;;;;;9.30;6.60;;;;;;;;;;5005375;28;20239;-53
2022/03/08 06:51:59;;;;;;;7.60;6.20;;;;;;;;;;4996659;28;20302;-53
2022/03/08 06:54:25;;;;;;;7.60;6.33;;;;;;;;;;4996030;28;20311;-54
2022/03/08 06:56:51;;;;;;;7.70;6.00;;;;;;;;;;5000492;28;20224;-52
2022/03/08 06:59:17;;;;;;;8.80;6.50;;;;;;;;;;5006387;28;20657;-52
2022/03/08 07:01:43;;;;;;;9.03;6.67;;;;;;;;;;4998712;28;20468;-51
2022/03/08 07:04:09;;;;;;;7.60;6.57;;;;;;;;;;4992721;28;20217;-53
2022/03/08 07:06:35;;;;;;;9.77;6.50;;;;;;;;;;4998057;28;20232;-53
2022/03/08 07:09:01;;;;;;;7.90;6.67;;;;;;;;;;4997870;28;20219;-53
2022/03/08 07:11:26;;;;;;;6.60;5.90;;;;;;;;;;4991893;28;20196;-53
2022/03/08 07:13:52;;;;;;;7.13;6.40;;;;;;;;;;4990625;28;20359;-53
2022/03/08 07:16:18;;;;;;;10.60;6.87;;;;;;;;;;4996227;28;20201;-53
2022/03/08 07:18:44;;;;;;;7.27;6.20;;;;;;;;;;4989529;28;20286;-53
2022/03/08 07:21:10;;;;;;;6.63;6.07;;;;;;;;;;4985652;28;20196;-52
2022/03/08 07:23:36;;;;;;;6.73;6.07;;;;;;;;;;4995296;28;20548;-52
2022/03/08 07:26:02;;;;;;;7.20;6.50;;;;;;;;;;5000090;28;20243;-53
2022/03/08 07:28:28;;;;;;;7.60;6.47;;;;;;;;;;5001731;28;20220;-52
2022/03/08 07:30:54;;;;;;;7.97;6.63;;;;;;;;;;5000857;28;20413;-53
2022/03/08 07:33:20;;;;;;;8.63;6.63;;;;;;;;;;4999002;28;20192;-53
2022/03/08 07:35:46;;;;;;;7.37;6.33;;;;;;;;;;5001937;28;20200;-53
2022/03/08 07:38:12;;;;;;;8.30;6.60;;;;;;;;;;5006361;28;20194;-53
2022/03/08 07:40:38;;;;;;;7.43;6.10;;;;;;;;;;5006906;28;20251;-53
2022/03/08 07:43:04;;;;;;;7.97;5.93;;;;;;;;;;5000237;28;20756;-53
2022/03/08 07:45:30;;;;;;;9.27;6.33;;;;;;;;;;5007789;28;20284;-54
2022/03/08 07:47:56;;;;;;;8.00;6.50;;;;;;;;;;5008429;28;20567;-53
2022/03/08 07:50:22;;;;;;;6.30;5.70;;;;;;;;;;5003861;28;20197;-53
2022/03/08 07:52:49;;;;;;;8.40;6.13;;;;;;;;;;5005448;28;20185;-53
2022/03/08 07:55:15;;;;;;;7.27;6.20;;;;;;;;;;5009570;28;20200;-52
2022/03/08 07:57:41;;;;;;;6.47;5.87;;;;;;;;;;5010578;28;20194;-53
2022/03/08 08:00:07;;;;;;;7.00;6.30;;;;;;;;;;5000956;28;20418;-54
2022/03/08 08:02:33;;;;;;;7.07;6.10;;;;;;;;;;5001303;28;20246;-53
2022/03/08 08:04:59;;;;;;;8.27;6.37;;;;;;;;;;5005031;28;20221;-53
2022/03/08 08:07:25;;;;;;;8.20;6.20;;;;;;;;;;4999001;28;20212;-54
2022/03/08 08:09:51;;;;;;;7.87;5.27;;;;;;;;;;4999900;28;20243;-53
2022/03/08 08:12:17;;;;;;;6.73;5.97;;;;;;;;;;5010724;28;20255;-53
2022/03/08 08:14:43;;;;;;;6.47;5.77;;;;;;;;;;5003347;28;20190;-53
2022/03/08 08:17:10;;;;;;;6.90;5.57;;;;;;;;;;5007194;28;20205;-52
2022/03/08 08:19:36;;;;;;;11.40;6.13;;;;;;;;;;5000228;28;20205;-54
2022/03/08 08:22:02;;;;;;;6.93;6.23;;;;;;;;;;5000545;28;20201;-53
2022/03/08 08:24:28;;;;;;;12.80;5.93;;;;;;;;;;5002310;28;20243;-53
2022/03/08 08:26:54;;;;;;;6.47;5.80;;;;;;;;;;5006458;28;20201;-52
2022/03/08 08:29:20;;;;;;;7.87;6.03;;;;;;;;;;5004685;28;20679;-54
2022/03/08 08:31:45;;;;;;;7.10;5.50;;;;;;;;;;5003810;28;20315;-53
2022/03/08 08:34:11;;;;;;;7.97;5.50;;;;;;;;;;5006574;28;20702;-53
2022/03/08 08:36:37;;;;;;;8.60;5.80;;;;;;;;;;4999171;28;21028;-54
2022/03/08 08:39:03;;;;;;;10.30;5.50;;;;;;;;;;5002642;28;20212;-52
2022/03/08 08:41:30;;;;;;;6.83;5.57;;;;;;;;;;5003194;28;20250;-53
2022/03/08 08:43:56;;;;;;;7.23;5.80;;;;;;;;;;5005221;28;20899;-53
2022/03/08 08:46:22;;;;;;;5.93;5.33;;;;;;;;;;5009966;28;20211;-54
2022/03/08 08:48:48;;;;;;;6.10;5.50;;;;;;;;;;5009934;28;20243;-53
2022/03/08 08:51:14;;;;;;;7.37;5.57;;;;;;;;;;5006918;28;20197;-54
2022/03/08 08:53:40;;;;;;;6.43;4.90;;;;;;;;;;5004816;28;21418;-52
2022/03/08 08:56:06;;;;;;;6.13;5.53;;;;;;;;;;5005610;28;20681;-53
2022/03/08 08:58:32;;;;;;;6.77;5.53;;;;;;;;;;4999491;28;20665;-52
2022/03/08 09:00:58;;;;;;;8.23;5.50;;;;;;;;;;5004791;28;20197;-53
2022/03/08 09:03:24;;;;;;;5.50;5.00;;;;;;;;;;4991639;28;20236;-52
2022/03/08 09:05:49;;;;;;;7.50;5.33;;;;;;;;;;4989557;28;20216;-53
2022/03/08 09:08:15;;;;;;;6.27;5.20;;;;;;;;;;5001047;28;20248;-54
2022/03/08 09:10:41;;;;;;;7.10;5.60;;;;;;;;;;5003471;28;20204;-53
2022/03/08 09:13:07;;;;;;;7.03;5.33;;;;;;;;;;4993970;28;20196;-54
2022/03/08 09:15:35;;;;;;;6.63;4.80;;;;;;;;;;5001951;28;20202;-54
2022/03/08 09:18:05;;;;;;;7.77;4.90;;;;;;;;;;5000554;28;20201;-52
2022/03/08 09:20:31;;;;;;;7.63;4.77;;;;;;;;;;5004487;28;20204;-55
2022/03/08 09:22:57;;;;;;;7.47;5.10;;;;;;;;;;5002510;28;20208;-55
2022/03/08 09:25:23;;;;;;;6.13;5.30;;;;;;;;;;5004832;28;20240;-53
2022/03/08 09:27:49;;;;;;;6.10;5.20;;;;;;;;;;4999841;28;20216;-54
2022/03/08 09:30:15;;;;;;;5.40;4.90;;;;;;;;;;4997085;28;21061;-53
2022/03/08 09:32:41;;;;;;;8.40;5.23;;;;;;;;;;4998605;28;20356;-55
2022/03/08 09:35:08;;;;;;;7.90;4.90;;;;;;;;;;5003093;28;20243;-53
2022/03/08 09:37:34;;;;;;;5.70;3.93;;;;;;;;;;4995009;28;20211;-54
2022/03/08 09:40:00;;;;;;;5.20;4.70;;;;;;;;;;4995289;28;20186;-53
2022/03/08 09:42:26;;;;;;;5.00;4.50;;;;;;;;;;4997515;28;20827;-55
2022/03/08 09:44:52;;;;;;;5.67;4.17;;;;;;;;;;5001943;28;20577;-53
2022/03/08 09:47:18;;;;;;;5.00;4.50;;;;;;;;;;5004496;28;20193;-54
2022/03/08 09:49:44;;;;;;;5.27;4.10;;;;;;;;;;4999665;28;20263;-54
2022/03/08 09:52:10;;;;;;;7.57;4.83;;;;;;;;;;5004193;28;20193;-55
2022/03/08 09:54:36;;;;;;;5.73;4.00;;;;;;;;;;5005464;28;20193;-54
2022/03/08 09:57:09;;;;;;;5.53;4.43;;;;;;;;;;5005842;28;22516;-55
2022/03/08 09:59:35;;;;;;;6.40;4.30;;;;;;;;;;5003134;28;20673;-54
2022/03/08 10:02:01;;;;;;;5.40;4.17;;;;;;;;;;5008010;28;20658;-55
2022/03/08 10:04:27;;;;;;;4.80;4.40;;;;;;;;;;5010224;28;20802;-55
2022/03/08 10:06:53;;;;;;;6.40;4.20;;;;;;;;;;5009245;28;20238;-54
2022/03/08 10:09:20;;;;;;;7.10;4.43;;;;;;;;;;5003969;28;21257;-55
2022/03/08 10:11:46;;;;;;;4.57;4.17;;;;;;;;;;5010444;28;20204;-55
2022/03/08 10:14:14;;;;;;;5.00;4.37;;;;;;;;;;5013926;28;20232;-54
2022/03/08 10:16:47;;;;;;;9.20;4.20;;;;;;;;;;5007705;28;20207;-56
2022/03/08 10:19:13;;;;;;;6.13;4.30;;;;;;;;;;4999081;28;20269;-54
2022/03/08 10:21:41;;;;;;;7.93;4.50;;;;;;;;;;5009298;28;20328;-55
2022/03/08 10:24:15;;;;;;;5.93;3.90;;;;;;;;;;5006878;28;20245;-56
2022/03/08 10:26:45;;;;;;;4.40;4.00;;;;;;;;;;5003738;28;20287;-56
2022/03/08 10:29:11;;;;;;;6.90;3.40;;;;;;;;;;5003326;28;20215;-54
2022/03/08 10:31:37;;;;;;;8.47;4.17;;;;;;;;;;5003620;28;20197;-54
2022/03/08 10:34:04;;;;;;;5.27;4.33;;;;;;;;;;5002450;28;20196;-55
2022/03/08 10:36:31;;;;;;;5.23;3.80;;;;;;;;;;5001065;28;20961;-55
2022/03/08 10:39:13;;;;;;;10.40;4.03;;;;;;;;;;5000587;28;20211;-56
2022/03/08 10:41:40;;;;;;;10.75;3.70;;;;;;;;;;5007651;28;20269;-55
2022/03/08 10:44:06;;;;;;;6.68;3.75;;;;;;;;;;5007904;28;20205;-56
2022/03/08 10:46:32;;;;;;;7.28;3.67;;;;;;;;;;5010610;28;20185;-56
2022/03/08 10:48:58;;;;;;;6.00;3.80;;;;;;;;;;5008808;28;20218;-55
2022/03/08 10:51:24;;;;;;;9.18;4.18;;;;;;;;;;5001495;28;20209;-55
2022/03/08 10:53:50;;;;;;;5.23;4.03;;;;;;;;;;4997554;28;20200;-56
2022/03/08 10:56:25;;;;;;;5.68;3.85;;;;;;;;;;5007117;28;20220;-55
2022/03/08 10:58:52;;;;;;;7.90;3.72;;;;;;;;;;5003148;28;20233;-55
2022/03/08 11:01:18;;;;;;;4.22;3.35;;;;;;;;;;5007893;28;20193;-56
2022/03/08 11:03:56;;;;;;;6.72;3.35;;;;;;;;;;5006132;28;20197;-56
2022/03/08 11:06:23;;;;;;;6.95;4.07;;;;;;;;;;5013591;28;20185;-55
2022/03/08 11:08:49;;;;;;;7.07;3.83;;;;;;;;;;5003007;28;20228;-56
2022/03/08 11:11:15;;;;;;;5.35;3.78;;;;;;;;;;5004099;28;20192;-56
2022/03/08 11:13:43;;;;;;;7.68;3.95;;;;;;;;;;5008400;28;20186;-56
2022/03/08 11:16:09;;;;;;;6.57;3.65;;;;;;;;;;5009083;28;20299;-56
2022/03/08 11:18:36;;;;;;;6.82;3.72;;;;;;;;;;5012161;28;20843;-57
2022/03/08 11:21:02;;;;;;;8.25;4.05;;;;;;;;;;5005144;28;20190;-56
2022/03/08 11:23:28;;;;;;;5.00;3.50;;;;;;;;;;5006742;28;20197;-57
2022/03/08 11:25:54;;;;;;;3.70;3.40;;;;;;;;;;5011283;28;20233;-56
2022/03/08 11:28:20;;;;;;;4.18;3.78;;;;;;;;;;5005661;28;20271;-56
2022/03/08 11:30:47;;;;;;;6.00;3.53;;;;;;;;;;5009324;28;20225;-57
2022/03/08 11:33:28;;;;;;;4.15;3.78;;;;;;;;;;4994441;28;20329;-58
2022/03/08 11:35:56;;;;;;;4.20;3.50;;;;;;;;;;5008463;28;20192;-57
2022/03/08 11:38:22;;;;;;;3.95;3.38;;;;;;;;;;5006049;28;20204;-57
2022/03/08 11:40:49;;;;;;;4.07;3.40;;;;;;;;;;5010224;28;20198;-58
2022/03/08 11:43:15;;;;;;;4.35;3.63;;;;;;;;;;5004861;28;20193;-57
2022/03/08 11:45:41;;;;;;;4.03;3.72;;;;;;;;;;5006444;28;20201;-58
2022/03/08 11:48:09;;;;;;;5.05;3.50;;;;;;;;;;5004157;28;20209;-57
2022/03/08 11:50:39;;;;;;;3.95;3.50;;;;;;;;;;4996922;28;20243;-57
2022/03/08 11:53:05;;;;;;;6.82;3.80;;;;;;;;;;5004768;28;20174;-57
2022/03/08 11:55:32;;;;;;;3.58;3.28;;;;;;;;;;4996549;28;20193;-57
2022/03/08 11:57:58;;;;;;;5.03;3.50;;;;;;;;;;5003281;28;20190;-57
2022/03/08 12:00:30;;;;;;;4.30;3.50;;;;;;;;;;5002411;28;21056;-57
2022/03/08 12:02:57;;;;;;;5.95;3.72;;;;;;;;;;5003167;28;20181;-57
2022/03/08 12:05:38;;;;;;;4.22;3.83;;;;;;;;;;5008224;28;20217;-58
2022/03/08 12:08:23;;;;;;;3.92;3.53;;;;;;;;;;4997689;28;20216;-58
2022/03/08 12:10:49;;;;;;;3.95;3.47;;;;;;;;;;4999800;28;20189;-57
2022/03/08 12:13:16;;;;;;;3.85;3.53;;;;;;;;;;5002253;28;21004;-57
2022/03/08 12:16:00;;;;;;;4.28;3.88;;;;;;;;;;4999690;28;21337;-57
2022/03/08 12:18:39;;;;;;;4.18;3.22;;;;;;;;;;5001025;28;20196;-57
2022/03/08 12:21:17;;;;;;;5.32;3.55;;;;;;;;;;5005881;28;21081;-57
2022/03/08 12:23:59;;;;;;;7.28;3.72;;;;;;;;;;5002092;28;20189;-57
2022/03/08 12:26:25;;;;;;;4.78;3.80;;;;;;;;;;5004875;28;20290;-57
2022/03/08 12:29:11;;;;;;;4.30;3.42;;;;;;;;;;4999757;28;20229;-57
2022/03/08 12:32:05;;;;;;;3.85;3.47;;;;;;;;;;5004697;28;21385;-57
2022/03/08 12:34:39;;;;;;;4.22;3.70;;;;;;;;;;5005500;28;20197;-57
2022/03/08 12:37:06;;;;;;;4.13;3.72;;;;;;;;;;4999019;28;20205;-58
2022/03/08 12:39:55;;;;;;;4.25;3.85;;;;;;;;;;5002307;28;20860;-57
2022/03/08 12:42:27;;;;;;;5.18;3.80;;;;;;;;;;4976253;28;20300;-57
2022/03/08 12:44:53;;;;;;;4.85;3.60;;;;;;;;;;5007095;28;20710;-57
2022/03/08 12:47:19;;;;;;;4.15;3.85;;;;;;;;;;5004074;28;20234;-56
2022/03/08 12:49:46;;;;;;;4.22;3.80;;;;;;;;;;5011015;28;20274;-57
2022/03/08 12:52:13;;;;;;;5.15;3.70;;;;;;;;;;5007960;28;20189;-57
2022/03/08 12:54:39;;;;;;;3.70;3.40;;;;;;;;;;5003909;28;20193;-57
2022/03/08 12:57:06;;;;;;;4.47;3.80;;;;;;;;;;5005747;28;20269;-57
2022/03/08 12:59:32;;;;;;;5.38;3.65;;;;;;;;;;5003368;28;20262;-57
2022/03/08 13:02:07;;;;;;;3.58;3.10;;;;;;;;;;5004311;28;20567;-57
2022/03/08 13:04:33;;;;;;;4.30;3.92;;;;;;;;;;5002826;28;20350;-57
2022/03/08 13:07:09;;;;;;;4.45;3.42;;;;;;;;;;4999925;28;20192;-58
2022/03/08 13:09:48;;;;;;;4.65;3.80;;;;;;;;;;5001110;28;20213;-57
2022/03/08 13:12:21;;;;;;;3.70;3.40;;;;;;;;;;4995850;28;20189;-57
2022/03/08 13:15:06;;;;;;;4.22;3.90;;;;;;;;;;4993040;28;20202;-57
2022/03/08 13:17:32;;;;;;;3.80;3.45;;;;;;;;;;4998924;28;20203;-57
2022/03/08 13:19:58;;;;;;;4.30;3.38;;;;;;;;;;5002408;28;20205;-56
2022/03/08 13:22:24;;;;;;;4.10;3.55;;;;;;;;;;4998230;28;20188;-57
2022/03/08 13:25:08;;;;;;;3.85;3.42;;;;;;;;;;4996671;28;20264;-57
2022/03/08 13:27:53;;;;;;;10.02;3.97;;;;;;;;;;4993830;28;20506;-57
2022/03/08 13:30:20;;;;;;;7.50;3.38;;;;;;;;;;4992571;28;21358;-57
2022/03/08 13:32:46;;;;;;;4.95;3.67;;;;;;;;;;4998483;28;20757;-57
2022/03/08 13:35:12;;;;;;;4.63;3.42;;;;;;;;;;4989846;28;20416;-57
2022/03/08 13:37:45;;;;;;;4.20;3.83;;;;;;;;;;4993556;28;20200;-57
2022/03/08 13:40:23;;;;;;;5.30;4.80;;;;;;;;;;4991367;28;21168;-57
2022/03/08 13:42:49;;;;;;;5.18;4.78;;;;;;;;;;4990754;28;20188;-57
2022/03/08 13:45:15;;;;;;;6.32;5.38;;;;;;;;;;4998450;28;20188;-57
2022/03/08 13:47:41;;;;;;;6.22;5.22;;;;;;;;;;4999142;28;20184;-56
2022/03/08 13:50:07;;;;;;;6.30;5.28;;;;;;;;;;4996877;28;20239;-57
2022/03/08 13:52:34;;;;;;;6.27;5.53;;;;;;;;;;4999930;28;21519;-57
2022/03/08 13:55:00;;;;;;;5.50;5.00;;;;;;;;;;5000079;28;24669;-56
2022/03/08 13:57:26;;;;;;;5.57;5.07;;;;;;;;;;4994982;28;20434;-57
2022/03/08 13:59:52;;;;;;;7.20;5.40;;;;;;;;;;4990155;28;20200;-57
2022/03/08 14:02:19;;;;;;;6.27;4.73;;;;;;;;;;4995303;28;20193;-56
2022/03/08 14:04:45;;;;;;;5.70;4.67;;;;;;;;;;4995291;28;20201;-56
2022/03/08 14:07:11;;;;;;;4.90;4.43;;;;;;;;;;4999059;28;20197;-56
2022/03/08 14:09:37;;;;;;;7.93;4.63;;;;;;;;;;5006239;28;20258;-57
2022/03/08 14:12:04;;;;;;;5.20;3.90;;;;;;;;;;4994809;28;20196;-57
2022/03/08 14:14:30;;;;;;;7.20;4.37;;;;;;;;;;4997356;28;20220;-56
2022/03/08 14:16:56;;;;;;;4.33;3.40;;;;;;;;;;5000035;28;20192;-57
2022/03/08 14:19:23;;;;;;;4.20;3.80;;;;;;;;;;5002864;28;20201;-57
2022/03/08 14:21:49;;;;;;;4.37;3.97;;;;;;;;;;5002289;28;20481;-57
2022/03/08 14:24:19;;;;;;;3.87;3.47;;;;;;;;;;4997384;28;20823;-57
2022/03/08 14:27:00;;;;;;;4.00;3.70;;;;;;;;;;5004513;28;20180;-56
2022/03/08 14:29:26;;;;;;;5.00;3.90;;;;;;;;;;4997888;28;20977;-56
2022/03/08 14:31:52;;;;;;;4.63;3.93;;;;;;;;;;5001749;28;20200;-56
2022/03/08 14:34:18;;;;;;;4.13;3.77;;;;;;;;;;4999282;28;21161;-56
2022/03/08 14:36:46;;;;;;;5.17;4.40;;;;;;;;;;4999723;28;20263;-57
2022/03/08 14:39:16;;;;;;;4.37;3.97;;;;;;;;;;4993224;28;20909;-56
2022/03/08 14:42:11;;;;;;;5.03;4.43;;;;;;;;;;4999701;28;20842;-56